Framlingham, United Kingdom
Current Conditions -  °F | °C
As of 11:50 PM on Tuesday 25 Nov 2014 (Local Time) from EGUW Reporting Station
Light Rain Light Rain  
Wind Chill: 43°   Ceiling: 5000
Heat Index: 46°   Visibility: 6mi
Dew Point: 45°   Wind: 7mph
Humidity: 93%   Direction: 80°E
Pressure: 30"   Gusts: NA
Location:  52.22°N, 1.34°E
Report Text: EGUW 252350Z 08006KT 9999 -RA OVC050 08/07 Q1016 BLU
Loading
Personal Weather Stations






























Interactive Weather Map New forecast layout! Learn more

10-Day Weather Forecast

Advertisements
Track Severe Weather on mobile